createdAt,value
2018-07-21T00:02:18.577Z,22.47
2018-07-21T00:04:47.645Z,22.47
2018-07-21T00:07:16.639Z,22.45
2018-07-21T00:09:45.686Z,22.40
2018-07-21T00:12:14.840Z,22.38
2018-07-21T00:14:43.995Z,22.36
2018-07-21T00:17:12.989Z,22.33
2018-07-21T00:19:41.992Z,22.36
2018-07-21T00:22:10.968Z,22.34
2018-07-21T00:24:40.025Z,22.30
2018-07-21T00:27:09.060Z,22.22
2018-07-21T00:29:38.089Z,22.20
2018-07-21T00:32:07.391Z,22.18
2018-07-21T00:34:36.376Z,22.11
2018-07-21T00:37:05.341Z,22.08
2018-07-21T00:39:34.408Z,22.06
2018-07-21T00:42:03.433Z,22.05
2018-07-21T00:44:32.479Z,22.03
2018-07-21T00:47:01.444Z,22.03
2018-07-21T00:49:30.552Z,21.98
2018-07-21T00:51:59.515Z,21.93
2018-07-21T00:54:28.532Z,21.88
2018-07-21T00:56:57.521Z,21.85
2018-07-21T00:59:26.549Z,21.85
2018-07-21T01:01:55.689Z,21.81
2018-07-21T01:04:24.999Z,21.78
2018-07-21T01:06:54.357Z,21.76
2018-07-21T01:09:23.517Z,21.73
2018-07-21T01:11:52.767Z,21.76
2018-07-21T01:14:22.285Z,21.72
2018-07-21T01:16:51.452Z,21.73
2018-07-21T01:19:20.529Z,21.70
2018-07-21T01:21:49.820Z,21.70
2018-07-21T01:24:19.108Z,21.66
2018-07-21T01:26:48.385Z,21.64
2018-07-21T01:29:17.806Z,21.60
2018-07-21T01:31:47.221Z,21.51
2018-07-21T01:34:16.576Z,21.59
2018-07-21T01:36:45.563Z,21.54
2018-07-21T01:39:14.519Z,21.48
2018-07-21T01:41:43.555Z,21.46
2018-07-21T01:44:12.587Z,21.48
2018-07-21T01:46:41.817Z,21.44
2018-07-21T01:49:10.836Z,21.40
2018-07-21T01:51:40.143Z,21.32
2018-07-21T01:54:09.480Z,21.30
2018-07-21T01:56:38.583Z,21.27
2018-07-21T01:59:07.723Z,21.33
2018-07-21T02:01:36.754Z,21.28
2018-07-21T02:04:06.080Z,21.29
2018-07-21T02:06:35.440Z,21.27
2018-07-21T02:09:06.642Z,21.24
2018-07-21T02:11:35.887Z,21.14
2018-07-21T02:14:05.172Z,21.12
2018-07-21T02:16:34.500Z,21.02
2018-07-21T02:19:03.759Z,20.92
2018-07-21T02:21:33.044Z,20.84
2018-07-21T02:24:02.092Z,20.82
2018-07-21T02:26:31.182Z,20.79
2018-07-21T02:29:00.500Z,20.79
2018-07-21T02:31:29.894Z,20.81
2018-07-21T02:33:59.251Z,20.86
2018-07-21T02:36:28.592Z,20.88
2018-07-21T02:38:57.911Z,20.83
2018-07-21T02:41:27.132Z,20.83
2018-07-21T02:43:56.367Z,20.82
2018-07-21T02:46:25.638Z,20.80
2018-07-21T02:48:54.912Z,20.77
2018-07-21T02:51:24.219Z,20.77
2018-07-21T02:53:53.524Z,20.76
2018-07-21T02:56:22.768Z,20.73
2018-07-21T02:58:52.000Z,20.67
2018-07-21T03:01:21.089Z,20.65
2018-07-21T03:03:50.502Z,20.66
2018-07-21T03:06:19.913Z,20.70
2018-07-21T03:08:49.140Z,20.71
2018-07-21T03:11:18.625Z,20.73
2018-07-21T03:13:47.993Z,20.76
2018-07-21T03:16:17.470Z,20.80
2018-07-21T03:18:46.849Z,20.81
2018-07-21T03:21:16.263Z,20.82
2018-07-21T03:23:45.648Z,20.81
2018-07-21T03:26:15.018Z,20.82
2018-07-21T03:28:44.059Z,20.83
2018-07-21T03:31:13.402Z,20.81
2018-07-21T03:33:42.592Z,20.73
2018-07-21T03:36:11.776Z,20.62
2018-07-21T03:38:41.047Z,20.54
2018-07-21T03:41:10.000Z,20.51
2018-07-21T03:43:39.284Z,20.49
2018-07-21T03:46:08.866Z,20.49
2018-07-21T03:48:38.081Z,20.49
2018-07-21T03:51:07.383Z,20.54
2018-07-21T03:53:36.695Z,20.58
2018-07-21T03:56:06.152Z,20.64
2018-07-21T03:58:35.389Z,20.72
2018-07-21T04:01:04.658Z,20.75
2018-07-21T04:03:33.985Z,20.80
2018-07-21T04:06:03.136Z,20.86
2018-07-21T04:08:32.538Z,20.93
2018-07-21T04:11:01.793Z,20.96
2018-07-21T04:13:30.777Z,21.03
2018-07-21T04:16:00.032Z,21.09
2018-07-21T04:18:29.332Z,21.15
2018-07-21T04:20:58.584Z,21.19
2018-07-21T04:23:27.632Z,21.20
2018-07-21T04:25:56.639Z,21.23
2018-07-21T04:28:26.017Z,21.29
2018-07-21T04:30:55.467Z,21.37
2018-07-21T04:33:24.801Z,21.46
2018-07-21T04:35:54.200Z,21.53
2018-07-21T04:38:23.527Z,21.61
2018-07-21T04:40:52.684Z,21.75
2018-07-21T04:43:21.897Z,21.88
2018-07-21T04:45:51.131Z,21.97
2018-07-21T04:48:20.432Z,22.06
2018-07-21T04:50:49.831Z,22.11
2018-07-21T04:53:19.097Z,22.19
2018-07-21T04:55:48.461Z,22.28
2018-07-21T04:58:17.916Z,22.41
2018-07-21T05:00:47.341Z,22.54
2018-07-21T05:03:16.598Z,22.61
2018-07-21T05:05:45.748Z,22.69
2018-07-21T05:08:14.941Z,22.78
2018-07-21T05:10:44.065Z,22.85
2018-07-21T05:13:13.240Z,22.95
2018-07-21T05:15:42.260Z,23.07
2018-07-21T05:18:11.330Z,23.22
2018-07-21T05:20:40.313Z,23.41
2018-07-21T05:23:09.357Z,23.63
2018-07-21T05:25:38.336Z,23.89
2018-07-21T05:28:07.348Z,24.16
2018-07-21T05:30:36.335Z,24.36
2018-07-21T05:33:05.319Z,24.55
2018-07-21T05:35:34.352Z,24.63
2018-07-21T05:38:03.600Z,24.78
2018-07-21T05:40:32.815Z,24.88
2018-07-21T05:43:01.860Z,24.98
2018-07-21T05:45:30.811Z,25.06
2018-07-21T05:47:59.876Z,25.21
2018-07-21T05:50:28.846Z,25.38
2018-07-21T05:52:57.903Z,25.56
2018-07-21T05:55:26.890Z,25.77
2018-07-21T05:57:55.968Z,25.94
2018-07-21T06:00:25.052Z,26.07
2018-07-21T06:02:54.269Z,26.20
2018-07-21T06:05:23.282Z,26.32
2018-07-21T06:07:52.279Z,26.43
2018-07-21T06:10:21.620Z,26.41
2018-07-21T06:12:50.983Z,26.49
2018-07-21T06:15:20.329Z,26.59
2018-07-21T06:17:49.787Z,26.79
2018-07-21T06:20:18.797Z,26.91
2018-07-21T06:22:47.977Z,26.96
2018-07-21T06:25:16.988Z,27.08
2018-07-21T06:27:46.032Z,27.19
2018-07-21T06:30:14.996Z,27.11
2018-07-21T06:32:44.103Z,27.06
2018-07-21T06:35:13.107Z,27.24
2018-07-21T06:37:42.067Z,27.43
2018-07-21T06:40:12.051Z,27.59
2018-07-21T06:42:41.019Z,27.88
2018-07-21T06:45:10.020Z,28.17
2018-07-21T06:47:39.068Z,28.15
2018-07-21T06:50:08.852Z,28.32
2018-07-21T06:52:37.923Z,28.61
2018-07-21T06:55:10.110Z,28.86
2018-07-21T06:57:39.188Z,28.83
2018-07-21T07:00:08.168Z,28.83
2018-07-21T07:02:37.143Z,29.09
2018-07-21T07:05:06.703Z,29.33
2018-07-21T07:07:35.679Z,29.42
2018-07-21T07:10:05.503Z,29.75
2018-07-21T07:12:34.882Z,29.94
2018-07-21T07:15:04.336Z,29.80
2018-07-21T07:17:33.684Z,29.94
2018-07-21T07:20:02.652Z,30.24
2018-07-21T07:22:31.612Z,30.62
2018-07-21T07:25:00.620Z,30.97
2018-07-21T07:27:29.765Z,31.05
2018-07-21T07:29:58.985Z,31.15
2018-07-21T07:32:28.407Z,30.63
2018-07-21T07:34:57.640Z,30.54
2018-07-21T07:37:26.848Z,30.86
2018-07-21T07:39:56.153Z,30.80
2018-07-21T07:42:25.857Z,30.65
2018-07-21T07:44:54.852Z,31.07
2018-07-21T07:47:23.859Z,31.32
2018-07-21T07:49:52.820Z,31.44
2018-07-21T07:52:21.799Z,31.29
2018-07-21T07:54:50.852Z,30.94
2018-07-21T07:57:19.911Z,30.96
2018-07-21T07:59:48.963Z,31.24
2018-07-21T08:02:18.153Z,31.12
2018-07-21T08:04:47.116Z,30.76
2018-07-21T08:07:16.373Z,30.63
2018-07-21T08:09:45.424Z,30.32
2018-07-21T08:12:15.826Z,30.41
2018-07-21T08:14:44.878Z,30.43
2018-07-21T08:17:13.848Z,30.53
2018-07-21T08:19:42.914Z,30.74
2018-07-21T08:22:11.941Z,30.77
2018-07-21T08:24:45.867Z,31.17
2018-07-21T08:27:15.322Z,31.37
2018-07-21T08:29:44.368Z,31.64
2018-07-21T08:32:13.443Z,32.08
2018-07-21T08:34:42.474Z,32.24
2018-07-21T08:37:11.496Z,31.82
2018-07-21T08:39:40.468Z,32.10
2018-07-21T08:42:09.487Z,32.58
2018-07-21T08:44:38.452Z,32.68
2018-07-21T08:47:07.756Z,33.13
2018-07-21T08:49:36.726Z,33.60
2018-07-21T08:52:05.777Z,33.57
2018-07-21T08:54:34.760Z,33.76
2018-07-21T08:57:03.723Z,33.66
2018-07-21T08:59:32.725Z,33.66
2018-07-21T09:02:01.851Z,33.46
2018-07-21T09:04:31.352Z,33.54
2018-07-21T09:07:00.444Z,33.62
2018-07-21T09:09:29.494Z,33.25
2018-07-21T09:11:58.475Z,33.23
2018-07-21T09:14:27.458Z,33.33
2018-07-21T09:16:56.754Z,32.64
2018-07-21T09:19:25.988Z,32.05
2018-07-21T09:21:55.056Z,31.70
2018-07-21T09:24:24.012Z,31.14
2018-07-21T09:26:53.125Z,31.13
2018-07-21T09:29:22.155Z,31.23
2018-07-21T09:31:51.223Z,31.36
2018-07-21T09:34:20.194Z,31.67
2018-07-21T09:36:49.167Z,32.15
2018-07-21T09:39:18.148Z,32.86
2018-07-21T09:41:47.201Z,33.46
2018-07-21T09:44:16.288Z,33.80
2018-07-21T09:46:45.250Z,34.32
2018-07-21T09:49:14.321Z,34.10
2018-07-21T09:51:43.299Z,34.02
2018-07-21T09:54:12.328Z,33.98
2018-07-21T09:56:41.300Z,33.62
2018-07-21T09:59:10.375Z,33.05
2018-07-21T10:01:39.511Z,33.18
2018-07-21T10:04:08.624Z,33.40
2018-07-21T10:06:37.624Z,33.80
2018-07-21T10:09:09.014Z,34.18
2018-07-21T10:11:37.999Z,34.37
2018-07-21T10:14:07.459Z,34.22
2018-07-21T10:16:36.496Z,33.99
2018-07-21T10:19:05.901Z,33.74
2018-07-21T10:21:34.964Z,33.58
2018-07-21T10:24:09.012Z,33.21
2018-07-21T10:26:43.093Z,32.81
2018-07-21T10:29:13.209Z,32.27
2018-07-21T10:31:43.194Z,32.28
2018-07-21T10:34:12.450Z,32.22
2018-07-21T10:36:41.987Z,32.05
2018-07-21T10:39:13.590Z,31.70
2018-07-21T10:41:42.676Z,31.82
2018-07-21T10:44:11.796Z,32.22
2018-07-21T10:46:40.755Z,32.37
2018-07-21T10:49:09.720Z,32.26
2018-07-21T10:51:38.776Z,32.49
2018-07-21T10:54:07.901Z,32.50
2018-07-21T10:56:36.878Z,31.52
2018-07-21T10:59:05.872Z,31.16
2018-07-21T11:01:34.863Z,31.54
2018-07-21T11:04:03.893Z,31.97
2018-07-21T11:06:33.037Z,31.88
2018-07-21T11:09:02.021Z,31.66
2018-07-21T11:11:31.004Z,31.33
2018-07-21T11:14:00.094Z,31.34
2018-07-21T11:16:29.096Z,31.82
2018-07-21T11:18:58.153Z,32.31
2018-07-21T11:21:27.197Z,32.67
2018-07-21T11:23:56.225Z,32.53
2018-07-21T11:26:25.279Z,32.38
2018-07-21T11:28:54.240Z,31.76
2018-07-21T11:31:23.280Z,31.98
2018-07-21T11:33:52.311Z,32.53
2018-07-21T11:36:21.414Z,32.79
2018-07-21T11:38:50.437Z,33.21
2018-07-21T11:41:19.568Z,33.54
2018-07-21T11:43:48.547Z,33.12
2018-07-21T11:46:17.612Z,33.02
2018-07-21T11:48:46.716Z,33.14
2018-07-21T11:51:15.684Z,33.34
2018-07-21T11:53:44.719Z,33.24
2018-07-21T11:56:13.908Z,33.28
2018-07-21T11:58:42.891Z,33.15
2018-07-21T12:01:11.917Z,32.57
2018-07-21T12:03:40.924Z,32.62
2018-07-21T12:06:10.685Z,32.96
2018-07-21T12:08:39.976Z,32.48
2018-07-21T12:11:08.960Z,32.00
2018-07-21T12:13:38.273Z,31.57
2018-07-21T12:16:08.033Z,31.28
2018-07-21T12:18:37.168Z,31.50
2018-07-21T12:21:06.524Z,31.78
2018-07-21T12:23:35.562Z,32.03
2018-07-21T12:26:04.629Z,32.40
2018-07-21T12:28:33.736Z,32.71
2018-07-21T12:31:02.929Z,32.98
2018-07-21T12:33:31.925Z,33.20
2018-07-21T12:36:00.903Z,33.15
2018-07-21T12:38:29.941Z,33.21
2018-07-21T12:40:58.955Z,33.20
2018-07-21T12:43:28.089Z,33.31
2018-07-21T12:45:57.108Z,33.05
2018-07-21T12:48:26.142Z,32.92
2018-07-21T12:50:55.497Z,33.15
2018-07-21T12:53:24.605Z,33.25
2018-07-21T12:55:53.571Z,33.19
2018-07-21T12:58:22.608Z,33.03
2018-07-21T13:00:51.634Z,33.13
2018-07-21T13:03:20.724Z,33.27
2018-07-21T13:05:49.764Z,33.39
2018-07-21T13:08:18.982Z,33.38
2018-07-21T13:10:47.963Z,33.04
2018-07-21T13:13:16.928Z,33.11
2018-07-21T13:15:45.956Z,33.30
2018-07-21T13:18:15.028Z,33.18
2018-07-21T13:20:44.101Z,32.90
2018-07-21T13:23:13.092Z,33.13
2018-07-21T13:25:42.144Z,33.23
2018-07-21T13:28:11.403Z,32.93
2018-07-21T13:30:40.792Z,32.32
2018-07-21T13:33:09.812Z,31.99
2018-07-21T13:35:38.787Z,31.91
2018-07-21T13:38:07.896Z,31.84
2018-07-21T13:40:36.947Z,32.16
2018-07-21T13:43:05.990Z,32.35
2018-07-21T13:45:35.028Z,32.57
2018-07-21T13:48:04.171Z,32.31
2018-07-21T13:50:33.223Z,31.98
2018-07-21T13:53:02.196Z,32.02
2018-07-21T13:55:31.252Z,32.17
2018-07-21T13:58:00.250Z,32.54
2018-07-21T14:00:29.332Z,32.56
2018-07-21T14:02:58.368Z,32.63
2018-07-21T14:05:27.352Z,32.70
2018-07-21T14:07:56.333Z,32.81
2018-07-21T14:10:25.481Z,32.84
2018-07-21T14:12:54.712Z,32.86
2018-07-21T14:15:23.688Z,32.98
2018-07-21T14:17:52.681Z,32.85
2018-07-21T14:20:21.721Z,32.67
2018-07-21T14:22:50.696Z,32.54
2018-07-21T14:25:19.741Z,32.51
2018-07-21T14:27:48.847Z,32.63
2018-07-21T14:30:17.875Z,32.72
2018-07-21T14:32:46.933Z,32.75
2018-07-21T14:35:15.991Z,32.69
2018-07-21T14:37:45.017Z,32.65
2018-07-21T14:40:14.112Z,32.37
2018-07-21T14:42:43.089Z,32.38
2018-07-21T14:45:12.080Z,32.33
2018-07-21T14:47:41.398Z,32.11
2018-07-21T14:50:10.386Z,32.20
2018-07-21T14:52:39.378Z,32.17
2018-07-21T14:55:08.419Z,32.07
2018-07-21T14:57:37.445Z,32.03
2018-07-21T15:00:06.621Z,32.04
2018-07-21T15:02:35.609Z,32.12
2018-07-21T15:05:04.712Z,32.27
2018-07-21T15:07:33.749Z,32.28
2018-07-21T15:10:02.909Z,32.21
2018-07-21T15:12:31.875Z,32.15
2018-07-21T15:15:00.883Z,32.14
2018-07-21T15:17:29.857Z,32.22
2018-07-21T15:19:58.908Z,32.04
2018-07-21T15:22:27.943Z,31.97
2018-07-21T15:24:56.967Z,31.96
2018-07-21T15:27:25.999Z,31.81
2018-07-21T15:29:54.959Z,31.84
2018-07-21T15:32:23.955Z,31.94
2018-07-21T15:34:52.929Z,31.94
2018-07-21T15:37:21.915Z,31.86
2018-07-21T15:39:50.953Z,31.74
2018-07-21T15:42:20.081Z,31.51
2018-07-21T15:44:49.117Z,31.53
2018-07-21T15:47:18.100Z,31.61
2018-07-21T15:49:47.160Z,31.59
2018-07-21T15:52:16.116Z,31.68
2018-07-21T15:54:45.200Z,31.69
2018-07-21T15:57:14.328Z,31.69
2018-07-21T15:59:43.408Z,31.65
2018-07-21T16:02:12.573Z,31.71
2018-07-21T16:04:41.614Z,31.74
2018-07-21T16:07:10.660Z,31.82
2018-07-21T16:09:39.790Z,31.68
2018-07-21T16:12:08.788Z,31.46
2018-07-21T16:14:37.873Z,31.42
2018-07-21T16:17:06.864Z,31.40
2018-07-21T16:19:35.941Z,31.30
2018-07-21T16:22:05.168Z,31.18
2018-07-21T16:24:34.128Z,31.06
2018-07-21T16:27:03.228Z,31.03
2018-07-21T16:29:32.364Z,30.94
2018-07-21T16:32:01.471Z,30.84
2018-07-21T16:34:30.581Z,30.76
2018-07-21T16:36:59.568Z,30.65
2018-07-21T16:39:28.662Z,30.41
2018-07-21T16:41:57.637Z,30.19
2018-07-21T16:44:26.693Z,29.97
2018-07-21T16:46:55.669Z,29.82
2018-07-21T16:49:24.659Z,29.60
2018-07-21T16:51:53.737Z,29.50
2018-07-21T16:54:22.767Z,29.33
2018-07-21T16:56:51.783Z,29.19
2018-07-21T16:59:20.841Z,29.08
2018-07-21T17:01:49.860Z,28.96
2018-07-21T17:04:18.828Z,28.86
2018-07-21T17:06:47.901Z,28.67
2018-07-21T17:09:16.874Z,28.61
2018-07-21T17:11:45.852Z,28.50
2018-07-21T17:14:14.938Z,28.41
2018-07-21T17:16:43.984Z,28.29
2018-07-21T17:19:12.951Z,28.19
2018-07-21T17:21:42.016Z,28.10
2018-07-21T17:24:11.003Z,28.03
2018-07-21T17:26:39.960Z,27.91
2018-07-21T17:29:08.956Z,27.81
2018-07-21T17:31:38.015Z,27.74
2018-07-21T17:34:07.063Z,27.65
2018-07-21T17:36:36.040Z,27.58
2018-07-21T17:39:07.189Z,27.46
2018-07-21T17:41:36.312Z,27.38
2018-07-21T17:44:05.326Z,27.33
2018-07-21T17:46:34.415Z,27.26
2018-07-21T17:49:04.890Z,27.15
2018-07-21T17:51:34.013Z,27.12
2018-07-21T17:54:03.536Z,27.04
2018-07-21T17:56:33.076Z,26.99
2018-07-21T17:59:02.231Z,26.98
2018-07-21T18:01:31.377Z,26.91
2018-07-21T18:04:00.544Z,26.86
2018-07-21T18:06:29.566Z,26.78
2018-07-21T18:08:59.652Z,26.70
2018-07-21T18:11:28.804Z,26.59
2018-07-21T18:13:57.932Z,26.54
2018-07-21T18:16:27.026Z,26.45
2018-07-21T18:18:56.209Z,26.35
2018-07-21T18:21:25.453Z,26.25
2018-07-21T18:23:55.267Z,26.16
2018-07-21T18:26:24.263Z,26.05
2018-07-21T18:28:53.240Z,25.93
2018-07-21T18:31:22.712Z,25.87
2018-07-21T18:33:51.727Z,25.82
2018-07-21T18:36:21.012Z,25.73
2018-07-21T18:38:50.017Z,25.68
2018-07-21T18:41:19.093Z,25.58
2018-07-21T18:43:48.807Z,25.57
2018-07-21T18:46:18.093Z,25.47
2018-07-21T18:48:47.748Z,25.40
2018-07-21T18:51:16.768Z,25.35
2018-07-21T18:53:45.752Z,25.28
2018-07-21T18:56:14.778Z,25.21
2018-07-21T18:58:43.816Z,25.09
2018-07-21T19:01:12.800Z,25.00
2018-07-21T19:03:41.839Z,24.95
2018-07-21T19:06:10.799Z,24.85
2018-07-21T19:08:44.771Z,24.80
2018-07-21T19:11:13.741Z,24.72
2018-07-21T19:13:42.758Z,24.69
2018-07-21T19:16:16.671Z,24.65
2018-07-21T19:18:45.737Z,24.59
2018-07-21T19:21:19.465Z,24.50
2018-07-21T19:23:49.401Z,24.42
2018-07-21T19:26:23.516Z,24.35
2018-07-21T19:28:52.883Z,24.32
2018-07-21T19:31:22.215Z,24.29
2018-07-21T19:33:51.340Z,24.27
2018-07-21T19:36:20.336Z,24.28
2018-07-21T19:38:55.768Z,24.26
2018-07-21T19:41:29.882Z,24.20
2018-07-21T19:43:58.891Z,24.16
2018-07-21T19:46:27.917Z,24.07
2018-07-21T19:48:56.899Z,24.08
2018-07-21T19:51:25.944Z,23.92
2018-07-21T19:53:54.926Z,23.98
2018-07-21T19:56:23.904Z,23.96
2018-07-21T19:58:52.935Z,23.92
2018-07-21T20:01:21.994Z,23.80
2018-07-21T20:03:51.048Z,23.65
2018-07-21T20:06:20.037Z,23.54
2018-07-21T20:08:49.003Z,23.43
2018-07-21T20:11:18.004Z,23.38
2018-07-21T20:13:47.155Z,23.29
2018-07-21T20:16:16.164Z,23.31
2018-07-21T20:18:45.200Z,23.31
2018-07-21T20:21:14.252Z,23.28
2018-07-21T20:23:43.183Z,23.27
2018-07-21T20:26:12.313Z,23.31
2018-07-21T20:28:41.285Z,23.26
2018-07-21T20:31:10.271Z,23.19
2018-07-21T20:33:39.266Z,23.17
2018-07-21T20:36:08.311Z,23.12
2018-07-21T20:38:37.361Z,23.05
2018-07-21T20:41:06.408Z,23.03
2018-07-21T20:43:35.637Z,23.00
2018-07-21T20:46:04.774Z,22.95
2018-07-21T20:48:34.283Z,22.94
2018-07-21T20:51:03.297Z,22.95
2018-07-21T20:53:32.370Z,22.97
2018-07-21T20:56:01.370Z,22.95
2018-07-21T20:58:30.335Z,22.84
2018-07-21T21:00:59.312Z,22.81
2018-07-21T21:03:28.537Z,22.79
2018-07-21T21:05:57.591Z,22.75
2018-07-21T21:08:26.650Z,22.76
2018-07-21T21:10:55.620Z,22.73
2018-07-21T21:13:24.593Z,22.64
2018-07-21T21:15:53.568Z,22.57
2018-07-21T21:18:22.568Z,22.58
2018-07-21T21:20:51.586Z,22.52
2018-07-21T21:23:20.683Z,22.40
2018-07-21T21:25:49.686Z,22.34
2018-07-21T21:28:18.800Z,22.31
2018-07-21T21:30:47.865Z,22.32
2018-07-21T21:33:16.899Z,22.33
2018-07-21T21:35:45.905Z,22.32
2018-07-21T21:38:14.891Z,22.36
2018-07-21T21:40:43.900Z,22.35
2018-07-21T21:43:12.876Z,22.28
2018-07-21T21:45:41.996Z,22.18
2018-07-21T21:48:11.058Z,22.15
2018-07-21T21:50:40.113Z,22.10
2018-07-21T21:53:09.188Z,22.08
2018-07-21T21:55:38.237Z,22.06
2018-07-21T21:58:07.322Z,22.04
2018-07-21T22:00:57.724Z,21.97
2018-07-21T22:03:26.832Z,21.90
2018-07-21T22:05:56.045Z,21.85
2018-07-21T22:08:25.131Z,21.79
2018-07-21T22:10:54.197Z,21.82
2018-07-21T22:13:23.189Z,21.80
2018-07-21T22:15:52.180Z,21.74
2018-07-21T22:18:21.216Z,21.74
2018-07-21T22:20:50.314Z,21.63
2018-07-21T22:23:19.279Z,21.56
2018-07-21T22:25:48.295Z,21.59
2018-07-21T22:28:17.284Z,21.53
2018-07-21T22:30:46.354Z,21.54
2018-07-21T22:33:15.324Z,21.57
2018-07-21T22:38:12.180Z,21.44
2018-07-21T22:40:41.179Z,21.42
2018-07-21T22:43:10.240Z,21.38
2018-07-21T22:45:39.221Z,21.35
2018-07-21T22:48:08.232Z,21.36
2018-07-21T22:50:37.195Z,21.34
2018-07-21T22:53:06.473Z,21.31
2018-07-21T22:55:35.448Z,21.22
2018-07-21T22:58:04.428Z,21.19
2018-07-21T23:00:33.463Z,21.20
2018-07-21T23:03:02.429Z,21.20
2018-07-21T23:05:31.464Z,21.25
2018-07-21T23:08:00.513Z,21.25
2018-07-21T23:10:29.509Z,21.18
2018-07-21T23:12:58.534Z,21.12
2018-07-21T23:15:27.516Z,21.17
2018-07-21T23:17:56.501Z,21.13
2018-07-21T23:20:25.563Z,21.06
2018-07-21T23:22:54.614Z,21.01
2018-07-21T23:25:23.595Z,21.00
2018-07-21T23:27:52.579Z,20.96
2018-07-21T23:30:21.566Z,20.91
2018-07-21T23:32:50.555Z,20.88
2018-07-21T23:35:19.580Z,20.87
2018-07-21T23:37:48.627Z,20.84
2018-07-21T23:40:17.619Z,20.83
2018-07-21T23:42:46.606Z,20.80
2018-07-21T23:45:15.587Z,20.81
2018-07-21T23:47:44.608Z,20.83
2018-07-21T23:50:13.676Z,20.79
2018-07-21T23:52:42.659Z,20.80
2018-07-21T23:55:11.663Z,20.82
2018-07-21T23:57:40.637Z,20.79
